Accueil
METAR-TAF:

METAR-TAF

Aéroports :

Aéroport d'Épinal-Mirecourt

Épinal, France

latitude: 48-19-31N, longitude: 6-04-00E, altitude: 330 m

Observation

Le bulletin a été fait il y a 38 minutes, à 11:30 UTC
Vent 4 kt de ouest/sud-ouest, variant entre sud/sud-ouest et ouest
Température 7°C
Humidité 57%
Pression 1008 hPa
Visibilité 10 km ou plus
Nuages fragmentés à une hauteur de 4300 ft
Ciel couvert à une hauteur de 5200 ft

METAR: LFSG 251130Z AUTO 24004KT 200V280 9999 BKN043 OVC052 07/M01 Q1008

Heure: 14:08 (12:08 UTC)


TAF: absent

Observations et prévisions météorologiques de plus de 4000 aéroports (messages METAR et TAF).

Les stations disponibles sont représentées par des disques jaunes et rouges sur la carte.

Passer la souris dessus pour voir le nom de la station.

Cliquer dessus pour voir les observations et prévisions météorologiques.

Pour changer de carte: cliquez sur les boutons verts avec une croix noire pour zoomer, sur le bouton vert avec un tiret pour effectuer un zoom arrière, ou sur les flèches vertes pour les cartes adjacentes.


METAR-TAF: